createdAt,value
2023-04-16T00:01:04.484Z,8.59
2023-04-16T00:03:31.419Z,8.68
2023-04-16T00:05:58.235Z,8.63
2023-04-16T00:08:25.026Z,8.72
2023-04-16T00:10:53.761Z,8.94
2023-04-16T00:13:20.906Z,8.53
2023-04-16T00:15:47.697Z,9.10
2023-04-16T00:18:14.598Z,8.72
2023-04-16T00:20:41.370Z,8.67
2023-04-16T00:23:08.111Z,8.63
2023-04-16T00:25:34.830Z,8.64
2023-04-16T00:28:01.586Z,8.92
2023-04-16T00:30:28.363Z,8.54
2023-04-16T00:32:55.122Z,8.56
2023-04-16T00:35:21.909Z,8.32
2023-04-16T00:37:48.714Z,8.58
2023-04-16T00:40:15.512Z,8.14
2023-04-16T00:42:42.226Z,8.45
2023-04-16T00:45:10.060Z,8.63
2023-04-16T00:47:36.931Z,8.26
2023-04-16T00:50:04.680Z,8.32
2023-04-16T00:52:35.143Z,8.32
2023-04-16T00:55:01.914Z,8.45
2023-04-16T00:57:28.737Z,8.64
2023-04-16T00:59:56.616Z,8.36
2023-04-16T01:02:23.793Z,8.67
2023-04-16T01:04:51.828Z,8.41
2023-04-16T01:07:18.601Z,8.33
2023-04-16T01:09:45.522Z,8.97
2023-04-16T01:12:12.274Z,8.92
2023-04-16T01:14:39.090Z,8.68
2023-04-16T01:17:06.038Z,8.84
2023-04-16T01:19:32.795Z,8.86
2023-04-16T01:21:59.628Z,8.61
2023-04-16T01:24:26.521Z,8.62
2023-04-16T01:26:53.518Z,8.86
2023-04-16T01:29:20.300Z,9.03
2023-04-16T01:31:47.177Z,8.73
2023-04-16T01:34:13.987Z,8.71
2023-04-16T01:36:40.697Z,8.77
2023-04-16T01:39:07.630Z,8.68
2023-04-16T01:41:34.593Z,8.79
2023-04-16T01:44:01.364Z,9.02
2023-04-16T01:46:31.158Z,8.67
2023-04-16T01:48:58.551Z,8.80
2023-04-16T01:51:25.409Z,8.75
2023-04-16T01:53:52.087Z,8.85
2023-04-16T01:56:18.855Z,8.69
2023-04-16T01:58:46.596Z,9.11
2023-04-16T02:01:14.096Z,9.21
2023-04-16T02:03:41.728Z,9.28
2023-04-16T02:06:08.810Z,9.06
2023-04-16T02:08:35.722Z,8.69
2023-04-16T02:11:02.507Z,9.06
2023-04-16T02:13:29.274Z,8.78
2023-04-16T02:15:56.145Z,8.87
2023-04-16T02:18:22.919Z,9.26
2023-04-16T02:20:50.022Z,9.17
2023-04-16T02:23:16.731Z,9.17
2023-04-16T02:25:46.035Z,9.16
2023-04-16T02:28:15.840Z,9.45
2023-04-16T02:30:43.238Z,9.52
2023-04-16T02:33:11.856Z,9.18
2023-04-16T02:35:39.551Z,9.38
2023-04-16T02:38:06.428Z,9.37
2023-04-16T02:40:33.531Z,9.25
2023-04-16T02:43:00.665Z,9.01
2023-04-16T02:45:28.020Z,9.02
2023-04-16T02:47:54.778Z,9.11
2023-04-16T02:50:21.604Z,9.02
2023-04-16T02:52:48.704Z,9.15
2023-04-16T02:55:15.607Z,9.11
2023-04-16T02:57:42.733Z,9.11
2023-04-16T03:00:10.157Z,9.24
2023-04-16T03:02:37.028Z,9.11
2023-04-16T03:05:04.535Z,9.45
2023-04-16T03:07:31.243Z,9.04
2023-04-16T03:09:58.049Z,9.10
2023-04-16T03:12:24.846Z,9.37
2023-04-16T03:14:52.817Z,9.56
2023-04-16T03:17:19.608Z,9.56
2023-04-16T03:19:46.420Z,9.45
2023-04-16T03:22:13.145Z,9.28
2023-04-16T03:24:39.942Z,9.03
2023-04-16T03:27:06.642Z,8.94
2023-04-16T03:29:33.394Z,9.12
2023-04-16T03:32:00.118Z,9.29
2023-04-16T03:34:27.059Z,9.01
2023-04-16T03:36:53.772Z,8.97
2023-04-16T03:39:20.703Z,9.28
2023-04-16T03:41:47.536Z,9.10
2023-04-16T03:44:14.266Z,9.01
2023-04-16T03:46:41.127Z,9.09
2023-04-16T03:49:08.636Z,8.91
2023-04-16T03:51:35.648Z,8.73
2023-04-16T03:54:02.425Z,8.71
2023-04-16T03:56:29.217Z,8.81
2023-04-16T03:58:56.059Z,9.01
2023-04-16T04:01:22.799Z,8.98
2023-04-16T04:03:49.862Z,8.81
2023-04-16T04:06:16.787Z,8.98
2023-04-16T04:08:43.626Z,8.89
2023-04-16T04:11:10.379Z,9.02
2023-04-16T04:13:37.077Z,8.86
2023-04-16T04:16:04.757Z,8.78
2023-04-16T04:18:32.061Z,8.93
2023-04-16T04:20:58.762Z,8.77
2023-04-16T04:23:25.493Z,8.62
2023-04-16T04:25:52.287Z,8.61
2023-04-16T04:28:19.045Z,9.05
2023-04-16T04:30:45.856Z,8.60
2023-04-16T04:33:12.595Z,8.68
2023-04-16T04:35:39.274Z,8.71
2023-04-16T04:38:06.151Z,8.49
2023-04-16T04:40:33.053Z,8.62
2023-04-16T04:42:59.784Z,8.79
2023-04-16T04:45:26.876Z,8.57
2023-04-16T04:47:54.030Z,8.87
2023-04-16T04:50:21.800Z,8.71
2023-04-16T04:52:48.514Z,9.05
2023-04-16T04:55:16.206Z,8.97
2023-04-16T04:57:43.007Z,8.83
2023-04-16T05:00:10.328Z,9.25
2023-04-16T05:02:37.500Z,8.96
2023-04-16T05:05:05.299Z,9.26
2023-04-16T05:07:32.360Z,8.73
2023-04-16T05:09:59.091Z,8.54
2023-04-16T05:12:25.966Z,8.93
2023-04-16T05:14:52.688Z,8.79
2023-04-16T05:17:19.466Z,9.02
2023-04-16T05:19:46.188Z,8.91
2023-04-16T05:22:13.190Z,8.82
2023-04-16T05:24:39.926Z,8.88
2023-04-16T05:27:06.650Z,8.89
2023-04-16T05:29:33.341Z,8.83
2023-04-16T05:32:00.142Z,8.74
2023-04-16T05:34:28.126Z,8.90
2023-04-16T05:36:54.890Z,9.25
2023-04-16T05:39:21.776Z,9.11
2023-04-16T05:41:48.623Z,9.08
2023-04-16T05:44:15.505Z,8.90
2023-04-16T05:46:42.316Z,9.18
2023-04-16T05:49:11.243Z,8.84
2023-04-16T05:51:38.175Z,9.22
2023-04-16T05:54:04.917Z,9.07
2023-04-16T05:56:31.602Z,9.07
2023-04-16T05:58:58.342Z,8.77
2023-04-16T06:01:25.688Z,8.72
2023-04-16T06:03:52.413Z,8.88
2023-04-16T06:06:19.182Z,9.03
2023-04-16T06:08:46.080Z,8.70
2023-04-16T06:11:12.919Z,8.82
2023-04-16T06:13:39.890Z,8.76
2023-04-16T06:16:06.899Z,8.81
2023-04-16T06:18:33.687Z,9.05
2023-04-16T06:21:00.444Z,8.86
2023-04-16T06:23:27.184Z,8.89
2023-04-16T06:25:54.462Z,9.31
2023-04-16T06:28:21.161Z,8.97
2023-04-16T06:30:48.190Z,9.38
2023-04-16T06:33:14.891Z,9.11
2023-04-16T06:35:41.739Z,9.32
2023-04-16T06:38:08.469Z,9.27
2023-04-16T06:40:37.140Z,9.52
2023-04-16T06:43:04.347Z,10.58
2023-04-16T06:45:31.239Z,11.22
2023-04-16T06:47:59.190Z,11.04
2023-04-16T06:50:27.037Z,11.46
2023-04-16T06:52:53.898Z,11.02
2023-04-16T06:55:20.920Z,11.71
2023-04-16T06:57:47.610Z,10.98
2023-04-16T07:00:14.536Z,11.30
2023-04-16T07:02:41.425Z,12.19
2023-04-16T07:05:09.154Z,12.08
2023-04-16T07:07:36.003Z,12.30
2023-04-16T07:10:03.099Z,12.33
2023-04-16T07:12:31.863Z,11.95
2023-04-16T07:14:58.594Z,11.96
2023-04-16T07:17:25.359Z,11.49
2023-04-16T07:19:52.343Z,11.77
2023-04-16T07:22:19.272Z,12.23
2023-04-16T07:24:46.043Z,12.59
2023-04-16T07:27:13.191Z,12.80
2023-04-16T07:29:40.044Z,12.63
2023-04-16T07:32:07.790Z,13.16
2023-04-16T07:34:34.548Z,12.51
2023-04-16T07:37:01.293Z,12.85
2023-04-16T07:39:28.020Z,13.06
2023-04-16T07:41:55.121Z,12.69
2023-04-16T07:44:21.899Z,12.75
2023-04-16T07:46:48.867Z,13.06
2023-04-16T07:49:15.715Z,13.04
2023-04-16T07:51:42.640Z,12.78
2023-04-16T07:54:10.252Z,12.68
2023-04-16T07:56:36.935Z,13.01
2023-04-16T07:59:21.141Z,13.25
2023-04-16T08:01:50.273Z,13.00
2023-04-16T08:04:23.329Z,13.37
2023-04-16T08:06:51.651Z,13.39
2023-04-16T08:09:20.245Z,12.98
2023-04-16T08:11:47.139Z,13.55
2023-04-16T08:14:13.909Z,13.24
2023-04-16T08:16:40.719Z,12.52
2023-04-16T08:19:07.618Z,13.43
2023-04-16T08:21:34.799Z,13.12
2023-04-16T08:24:01.562Z,13.04
2023-04-16T08:26:28.349Z,13.11
2023-04-16T08:28:55.108Z,13.60
2023-04-16T08:31:21.890Z,13.54
2023-04-16T08:33:48.692Z,13.25
2023-04-16T08:36:15.804Z,13.45
2023-04-16T08:38:42.607Z,13.50
2023-04-16T08:41:12.972Z,13.33
2023-04-16T08:43:44.804Z,13.33
2023-04-16T08:46:12.553Z,12.90
2023-04-16T08:48:42.397Z,13.13
2023-04-16T08:51:11.275Z,13.08
2023-04-16T08:53:53.390Z,13.27
2023-04-16T08:56:24.860Z,13.36
2023-04-16T08:58:53.972Z,13.74
2023-04-16T09:01:21.577Z,13.25
2023-04-16T09:03:49.431Z,13.57
2023-04-16T09:06:16.942Z,13.97
2023-04-16T09:08:48.279Z,14.28
2023-04-16T09:11:18.290Z,14.13
2023-04-16T09:13:46.402Z,13.88
2023-04-16T09:16:14.033Z,13.84
2023-04-16T09:18:41.481Z,13.25
2023-04-16T09:21:11.278Z,13.36
2023-04-16T09:23:39.081Z,13.24
2023-04-16T09:26:06.238Z,13.66
2023-04-16T09:28:40.796Z,13.32
2023-04-16T09:31:11.807Z,13.22
2023-04-16T09:33:38.785Z,13.05
2023-04-16T09:36:07.049Z,13.22
2023-04-16T09:38:51.100Z,12.86
2023-04-16T09:41:18.541Z,12.35
2023-04-16T09:43:57.922Z,12.42
2023-04-16T09:46:34.014Z,12.87
2023-04-16T09:49:13.543Z,13.20
2023-04-16T09:51:45.467Z,12.71
2023-04-16T09:54:12.539Z,12.89
2023-04-16T09:56:43.966Z,12.97
2023-04-16T09:59:24.344Z,12.84
2023-04-16T10:01:53.558Z,12.77
2023-04-16T10:04:51.545Z,12.60
2023-04-16T10:07:19.338Z,13.10
2023-04-16T10:09:48.626Z,13.48
2023-04-16T10:12:16.421Z,13.32
2023-04-16T10:14:43.375Z,13.54
2023-04-16T10:17:10.266Z,13.64
2023-04-16T10:19:37.574Z,13.61
2023-04-16T10:22:05.178Z,13.70
2023-04-16T10:24:39.818Z,13.72
2023-04-16T10:27:06.687Z,13.49
2023-04-16T10:29:34.633Z,13.60
2023-04-16T10:32:02.168Z,13.63
2023-04-16T10:34:29.361Z,13.24
2023-04-16T10:36:56.276Z,13.20
2023-04-16T10:39:25.800Z,13.08
2023-04-16T10:42:11.082Z,12.67
2023-04-16T10:44:38.275Z,12.68
2023-04-16T10:47:12.475Z,12.56
2023-04-16T10:49:39.590Z,12.61
2023-04-16T10:54:59.409Z,12.86
2023-04-16T10:57:29.897Z,12.64
2023-04-16T10:59:56.552Z,12.63
2023-04-16T11:02:29.151Z,13.20
2023-04-16T11:04:57.929Z,13.18
2023-04-16T11:07:35.331Z,12.79
2023-04-16T11:10:06.141Z,12.81
2023-04-16T11:12:38.211Z,12.71
2023-04-16T11:15:10.217Z,13.28
2023-04-16T11:17:38.965Z,13.44
2023-04-16T11:20:17.865Z,12.91
2023-04-16T11:22:47.463Z,12.98
2023-04-16T11:25:20.109Z,13.09
2023-04-16T11:27:46.803Z,12.68
2023-04-16T11:30:13.707Z,12.96
2023-04-16T11:32:40.844Z,12.81
2023-04-16T11:35:33.622Z,13.09
2023-04-16T11:38:00.514Z,13.24
2023-04-16T11:40:31.720Z,13.93
2023-04-16T11:43:03.350Z,13.83
2023-04-16T11:45:30.072Z,13.35
2023-04-16T11:47:58.023Z,13.05
2023-04-16T11:50:27.469Z,13.04
2023-04-16T11:53:03.681Z,12.47
2023-04-16T11:55:30.454Z,12.75
2023-04-16T11:57:57.144Z,12.77
2023-04-16T12:00:24.930Z,12.91
2023-04-16T12:02:53.915Z,13.08
2023-04-16T12:05:35.129Z,12.88
2023-04-16T12:08:04.248Z,13.38
2023-04-16T12:10:37.267Z,13.54
2023-04-16T12:13:12.884Z,12.82
2023-04-16T12:15:49.758Z,13.43
2023-04-16T12:18:17.246Z,13.22
2023-04-16T12:20:45.697Z,13.41
2023-04-16T12:23:26.921Z,13.43
2023-04-16T12:25:54.928Z,13.84
2023-04-16T12:28:33.113Z,14.16
2023-04-16T12:31:00.844Z,14.21
2023-04-16T12:33:27.681Z,13.19
2023-04-16T12:35:55.008Z,13.67
2023-04-16T12:38:24.265Z,13.15
2023-04-16T12:40:51.921Z,13.28
2023-04-16T12:43:19.909Z,13.22
2023-04-16T12:45:46.769Z,13.21
2023-04-16T12:48:13.659Z,13.19
2023-04-16T12:50:40.383Z,13.44
2023-04-16T12:53:09.337Z,13.61
2023-04-16T12:55:36.170Z,13.56
2023-04-16T12:58:03.088Z,13.43
2023-04-16T13:00:29.925Z,13.43
2023-04-16T13:02:56.735Z,12.91
2023-04-16T13:05:23.591Z,12.97
2023-04-16T13:07:50.402Z,12.96
2023-04-16T13:10:17.577Z,12.86
2023-04-16T13:12:44.342Z,12.97
2023-04-16T13:15:11.460Z,13.19
2023-04-16T13:17:38.303Z,13.52
2023-04-16T13:20:05.461Z,13.73
2023-04-16T13:22:32.523Z,13.59
2023-04-16T13:24:59.352Z,13.61
2023-04-16T13:27:26.361Z,13.23
2023-04-16T13:29:53.416Z,13.25
2023-04-16T13:32:20.504Z,13.07
2023-04-16T13:34:47.579Z,13.37
2023-04-16T13:37:14.365Z,13.23
2023-04-16T13:39:41.559Z,13.14
2023-04-16T13:42:08.433Z,13.08
2023-04-16T13:44:35.312Z,13.85
2023-04-16T13:47:02.129Z,13.27
2023-04-16T13:49:35.042Z,13.15
2023-04-16T13:52:02.500Z,13.29
2023-04-16T13:54:29.235Z,12.96
2023-04-16T13:56:56.192Z,13.32
2023-04-16T13:59:23.119Z,13.63
2023-04-16T14:01:50.020Z,13.36
2023-04-16T14:04:16.890Z,13.78
2023-04-16T14:06:43.636Z,12.74
2023-04-16T14:09:11.177Z,13.06
2023-04-16T14:11:38.214Z,13.34
2023-04-16T14:14:05.530Z,13.19
2023-04-16T14:16:32.513Z,13.20
2023-04-16T14:18:59.375Z,13.24
2023-04-16T14:21:27.156Z,13.57
2023-04-16T14:23:53.944Z,13.06
2023-04-16T14:26:21.239Z,13.35
2023-04-16T14:28:48.396Z,13.16
2023-04-16T14:31:15.094Z,13.20
2023-04-16T14:33:41.937Z,13.35
2023-04-16T14:36:08.985Z,13.22
2023-04-16T14:38:35.881Z,12.98
2023-04-16T14:41:02.979Z,12.82
2023-04-16T14:43:29.823Z,12.99
2023-04-16T14:45:58.288Z,13.28
2023-04-16T14:48:25.101Z,13.34
2023-04-16T14:50:51.895Z,12.82
2023-04-16T14:53:23.928Z,13.14
2023-04-16T14:55:52.171Z,12.87
2023-04-16T14:58:19.520Z,13.45
2023-04-16T15:00:46.223Z,13.80
2023-04-16T15:03:13.163Z,13.33
2023-04-16T15:05:39.946Z,13.33
2023-04-16T15:08:07.452Z,13.19
2023-04-16T15:13:15.751Z,13.19
2023-04-16T15:15:42.683Z,13.46
2023-04-16T15:18:09.613Z,13.23
2023-04-16T15:20:36.380Z,13.32
2023-04-16T15:23:03.297Z,13.81
2023-04-16T15:25:30.031Z,13.24
2023-04-16T15:27:56.733Z,13.37
2023-04-16T15:30:23.522Z,13.41
2023-04-16T15:32:50.377Z,13.23
2023-04-16T15:35:17.190Z,13.03
2023-04-16T15:37:44.273Z,13.51
2023-04-16T15:40:11.248Z,13.39
2023-04-16T15:42:38.078Z,13.30
2023-04-16T15:45:05.536Z,12.96
2023-04-16T15:47:32.436Z,13.29
2023-04-16T15:49:59.166Z,13.81
2023-04-16T15:52:26.096Z,13.15
2023-04-16T15:54:53.067Z,13.08
2023-04-16T15:57:20.337Z,13.28
2023-04-16T16:00:03.209Z,13.71
2023-04-16T16:02:32.679Z,12.95
2023-04-16T16:05:00.598Z,13.13
2023-04-16T16:07:27.563Z,12.93
2023-04-16T16:09:54.400Z,13.20
2023-04-16T16:12:21.948Z,13.30
2023-04-16T16:17:31.142Z,13.06
2023-04-16T16:19:59.429Z,13.45
2023-04-16T16:22:26.338Z,13.15
2023-04-16T16:25:00.069Z,12.77
2023-04-16T16:27:27.033Z,13.23
2023-04-16T16:29:53.833Z,12.73
2023-04-16T16:32:20.613Z,12.60
2023-04-16T16:34:47.318Z,12.20
2023-04-16T16:37:14.131Z,12.14
2023-04-16T16:39:40.984Z,12.33
2023-04-16T16:42:09.275Z,11.90
2023-04-16T16:44:36.778Z,11.88
2023-04-16T16:47:03.713Z,11.85
2023-04-16T16:49:30.591Z,12.01
2023-04-16T16:51:57.791Z,11.83
2023-04-16T16:54:24.546Z,12.37
2023-04-16T16:56:51.257Z,11.44
2023-04-16T16:59:18.022Z,11.37
2023-04-16T17:01:44.779Z,11.60
2023-04-16T17:04:11.574Z,11.39
2023-04-16T17:06:39.267Z,11.36
2023-04-16T17:09:07.226Z,11.35
2023-04-16T17:11:33.977Z,11.51
2023-04-16T17:14:00.914Z,11.75
2023-04-16T17:16:27.730Z,11.73
2023-04-16T17:18:54.646Z,11.69
2023-04-16T17:21:21.716Z,11.65
2023-04-16T17:23:48.489Z,11.62
2023-04-16T17:26:15.501Z,11.07
2023-04-16T17:28:42.179Z,10.94
2023-04-16T17:31:08.946Z,11.01
2023-04-16T17:33:35.935Z,10.91
2023-04-16T17:36:02.864Z,11.15
2023-04-16T17:38:29.667Z,10.92
2023-04-16T17:40:57.157Z,11.17
2023-04-16T17:43:24.279Z,10.93
2023-04-16T17:45:51.021Z,11.22
2023-04-16T17:48:17.788Z,11.15
2023-04-16T17:50:44.570Z,11.48
2023-04-16T17:53:11.333Z,11.54
2023-04-16T17:55:38.015Z,11.91
2023-04-16T17:58:04.891Z,11.94
2023-04-16T18:00:34.428Z,11.44
2023-04-16T18:03:01.230Z,11.67
2023-04-16T18:05:28.015Z,11.49
2023-04-16T18:07:55.735Z,11.63
2023-04-16T18:10:22.512Z,11.83
2023-04-16T18:12:49.271Z,11.79
2023-04-16T18:15:16.053Z,11.51
2023-04-16T18:17:42.834Z,11.70
2023-04-16T18:20:11.790Z,11.47
2023-04-16T18:25:34.356Z,11.49
2023-04-16T18:28:02.274Z,11.30
2023-04-16T18:30:29.452Z,11.30
2023-04-16T18:33:19.502Z,11.37
2023-04-16T18:35:42.996Z,11.18
2023-04-16T18:38:09.688Z,11.20
2023-04-16T18:40:37.249Z,11.44
2023-04-16T18:43:04.464Z,11.33
2023-04-16T18:48:00.228Z,11.05
2023-04-16T18:50:26.922Z,10.94
2023-04-16T18:52:58.130Z,11.07
2023-04-16T18:55:25.973Z,11.29
2023-04-16T18:57:53.439Z,10.95
2023-04-16T19:00:20.743Z,11.12
2023-04-16T19:02:47.733Z,11.15
2023-04-16T19:05:14.945Z,11.29
2023-04-16T19:07:42.183Z,10.93
2023-04-16T19:10:09.412Z,11.10
2023-04-16T19:12:36.350Z,11.25
2023-04-16T19:15:03.265Z,11.07
2023-04-16T19:17:30.051Z,11.25
2023-04-16T19:19:57.028Z,11.09
2023-04-16T19:22:23.796Z,10.85
2023-04-16T19:24:50.740Z,10.79
2023-04-16T19:27:17.470Z,10.51
2023-04-16T19:29:45.573Z,10.80
2023-04-16T19:32:14.056Z,10.53
2023-04-16T19:34:41.044Z,10.90
2023-04-16T19:37:07.785Z,10.60
2023-04-16T19:39:35.051Z,10.58
2023-04-16T19:42:03.770Z,10.71
2023-04-16T19:44:30.829Z,10.79
2023-04-16T19:46:57.547Z,10.86
2023-04-16T19:49:25.592Z,10.83
2023-04-16T19:51:53.128Z,10.56
2023-04-16T19:54:20.011Z,10.72
2023-04-16T19:56:49.122Z,11.05
2023-04-16T19:59:15.908Z,10.80
2023-04-16T20:01:42.691Z,10.78
2023-04-16T20:04:09.963Z,10.41
2023-04-16T20:06:37.121Z,10.68
2023-04-16T20:09:04.850Z,10.53
2023-04-16T20:11:31.656Z,10.18
2023-04-16T20:14:01.422Z,10.45
2023-04-16T20:16:28.427Z,10.81
2023-04-16T20:18:57.232Z,9.94
2023-04-16T20:21:25.603Z,10.14
2023-04-16T20:23:52.662Z,9.53
2023-04-16T20:26:19.530Z,10.43
2023-04-16T20:28:46.670Z,10.43
2023-04-16T20:31:14.317Z,10.15
2023-04-16T20:34:01.349Z,10.53
2023-04-16T20:36:28.312Z,10.37
2023-04-16T20:38:55.153Z,10.29
2023-04-16T20:41:22.698Z,9.74
2023-04-16T20:43:53.307Z,10.38
2023-04-16T20:46:24.569Z,10.15
2023-04-16T20:48:51.999Z,9.63
2023-04-16T20:51:19.339Z,10.54
2023-04-16T20:53:46.277Z,10.73
2023-04-16T20:56:15.155Z,10.27
2023-04-16T20:58:43.040Z,10.44
2023-04-16T21:01:10.227Z,10.38
2023-04-16T21:03:37.722Z,9.88
2023-04-16T21:06:04.920Z,10.68
2023-04-16T21:08:31.950Z,10.73
2023-04-16T21:10:58.891Z,10.29
2023-04-16T21:13:25.762Z,10.65
2023-04-16T21:15:53.094Z,10.68
2023-04-16T21:18:20.175Z,10.56
2023-04-16T21:20:47.034Z,10.29
2023-04-16T21:23:13.923Z,10.51
2023-04-16T21:25:41.197Z,10.73
2023-04-16T21:28:08.152Z,10.95
2023-04-16T21:30:35.002Z,10.41
2023-04-16T21:33:01.897Z,10.76
2023-04-16T21:35:28.727Z,10.21
2023-04-16T21:37:55.511Z,10.57
2023-04-16T21:40:22.365Z,10.34
2023-04-16T21:42:49.245Z,10.58
2023-04-16T21:45:16.126Z,10.55
2023-04-16T21:47:43.009Z,10.70
2023-04-16T21:50:10.476Z,10.56
2023-04-16T21:52:41.015Z,10.13
2023-04-16T21:55:09.821Z,10.24
2023-04-16T21:57:36.688Z,10.31
2023-04-16T22:00:12.147Z,10.17
2023-04-16T22:02:39.285Z,10.17
2023-04-16T22:05:06.508Z,10.33
2023-04-16T22:07:33.250Z,10.38
2023-04-16T22:10:00.154Z,10.37
2023-04-16T22:12:26.917Z,10.34
2023-04-16T22:15:02.385Z,10.41
2023-04-16T22:17:30.497Z,10.32
2023-04-16T22:20:00.557Z,10.59
2023-04-16T22:22:27.361Z,10.38
2023-04-16T22:24:54.237Z,10.26
2023-04-16T22:27:21.554Z,10.23
2023-04-16T22:29:48.395Z,10.30
2023-04-16T22:32:15.656Z,10.57
2023-04-16T22:34:42.556Z,10.37
2023-04-16T22:37:09.358Z,10.26
2023-04-16T22:39:36.207Z,10.15
2023-04-16T22:42:03.078Z,10.09
2023-04-16T22:44:29.947Z,10.18
2023-04-16T22:46:57.093Z,10.38
2023-04-16T22:49:24.047Z,10.23
2023-04-16T22:51:50.969Z,10.25
2023-04-16T22:54:17.975Z,10.12
2023-04-16T22:56:44.831Z,10.01
2023-04-16T22:59:11.820Z,10.07
2023-04-16T23:01:39.053Z,10.11
2023-04-16T23:04:06.128Z,10.33
2023-04-16T23:06:33.652Z,10.28
2023-04-16T23:09:00.429Z,10.17
2023-04-16T23:11:27.508Z,10.44
2023-04-16T23:13:54.347Z,10.37
2023-04-16T23:16:21.192Z,10.07
2023-04-16T23:18:48.025Z,10.36
2023-04-16T23:21:14.783Z,10.22
2023-04-16T23:23:41.637Z,10.12
2023-04-16T23:26:08.468Z,10.08
2023-04-16T23:28:35.343Z,10.19
2023-04-16T23:31:03.013Z,10.43
2023-04-16T23:33:30.558Z,10.25
2023-04-16T23:35:57.430Z,10.49
2023-04-16T23:38:24.769Z,10.39
2023-04-16T23:40:51.730Z,10.66
2023-04-16T23:43:18.512Z,10.52
2023-04-16T23:45:45.341Z,10.50
2023-04-16T23:48:12.312Z,10.79
2023-04-16T23:50:39.093Z,10.94
2023-04-16T23:53:05.883Z,10.41
2023-04-16T23:55:32.669Z,10.82
2023-04-16T23:57:59.572Z,10.66
